Time;durP1;ratioP1;P1;durP2;ratioP2;P2;SDS_P1;SDS_P2;PMS_P1;PMS_P2;Temp;Humidity;BMP_temperature;BMP_pressure;BME280_temperature;BME280_humidity;BME280_pressure;Samples;Min_cycle;Max_cycle;Signal;HPM_P1;HPM_P2
2023/09/25 00:01:43;;;;;;;6.18;2.88;;;;;;;9.95;100.00;101948.53;4972401;28;20441;-81
2023/09/25 00:04:12;;;;;;;6.50;2.85;;;;;;;9.93;100.00;101943.34;4980490;28;20419;-81
2023/09/25 00:06:40;;;;;;;6.93;2.80;;;;;;;9.98;100.00;101945.31;4961298;28;20426;-81
2023/09/25 00:09:10;;;;;;;8.38;3.20;;;;;;;9.96;100.00;101939.31;4977959;28;20428;-81
2023/09/25 00:11:44;;;;;;;6.75;3.28;;;;;;;9.95;100.00;101938.47;4977060;28;20447;-81
2023/09/25 00:14:17;;;;;;;5.82;3.17;;;;;;;9.95;100.00;101940.38;4977234;28;20424;-81
2023/09/25 00:16:46;;;;;;;6.82;2.95;;;;;;;9.97;100.00;101939.06;4976069;28;20927;-81
2023/09/25 00:19:20;;;;;;;8.90;3.00;;;;;;;9.98;100.00;101932.53;4977172;28;20420;-81
2023/09/25 00:21:53;;;;;;;7.10;3.33;;;;;;;9.92;100.00;101932.72;4976300;28;20444;-81
2023/09/25 00:24:29;;;;;;;7.60;3.03;;;;;;;9.91;100.00;101925.63;4976316;28;20422;-81
2023/09/25 00:27:02;;;;;;;8.13;2.88;;;;;;;9.86;100.00;101929.09;4979826;28;20425;-81
2023/09/25 00:29:37;;;;;;;7.45;3.10;;;;;;;9.87;100.00;101922.56;4993886;28;20912;-81
2023/09/25 00:32:10;;;;;;;6.93;2.83;;;;;;;9.85;100.00;101927.44;4980104;28;20988;-82
2023/09/25 00:34:45;;;;;;;5.65;3.03;;;;;;;9.86;100.00;101920.94;4978732;28;20424;-81
2023/09/25 00:37:18;;;;;;;8.30;2.80;;;;;;;9.85;100.00;101927.44;4976401;28;20437;-81
2023/09/25 00:39:52;;;;;;;7.70;2.90;;;;;;;9.78;100.00;101924.03;4974780;28;20428;-81
2023/09/25 00:42:26;;;;;;;6.30;3.17;;;;;;;9.73;100.00;101926.66;4964161;28;20447;-81
2023/09/25 00:44:59;;;;;;;8.95;3.13;;;;;;;9.71;100.00;101926.91;4978538;28;20438;-81
2023/09/25 00:47:28;;;;;;;6.70;3.08;;;;;;;9.72;100.00;101931.25;4978310;28;20426;-81
2023/09/25 00:50:04;;;;;;;6.83;3.23;;;;;;;9.69;100.00;101929.03;4981226;28;20510;-81
2023/09/25 00:52:41;;;;;;;6.18;3.20;;;;;;;9.60;100.00;101927.75;4981577;28;20931;-81
2023/09/25 00:55:15;;;;;;;6.35;2.92;;;;;;;9.61;100.00;101927.53;4977893;28;20434;-81
2023/09/25 00:57:52;;;;;;;6.22;3.03;;;;;;;9.59;100.00;101920.69;4972765;28;20433;-80
2023/09/25 01:00:25;;;;;;;6.60;3.10;;;;;;;9.59;100.00;101917.97;4973493;28;20440;-80
2023/09/25 01:02:58;;;;;;;8.57;3.60;;;;;;;9.56;100.00;101927.44;4976607;28;20800;-81
2023/09/25 01:05:28;;;;;;;6.30;3.25;;;;;;;9.56;100.00;101915.75;4979641;28;20423;-81
2023/09/25 01:08:02;;;;;;;6.70;3.20;;;;;;;9.55;100.00;101930.41;4977676;28;20440;-81
2023/09/25 01:10:36;;;;;;;7.05;3.20;;;;;;;9.53;100.00;101915.16;4963411;28;20437;-81
2023/09/25 01:13:11;;;;;;;6.57;3.30;;;;;;;9.54;100.00;101913.25;4973453;28;20538;-81
2023/09/25 01:15:44;;;;;;;7.60;3.20;;;;;;;9.53;100.00;101912.44;4978449;28;20434;-81
2023/09/25 01:18:17;;;;;;;9.70;3.20;;;;;;;9.53;100.00;101906.19;4963394;28;20437;-81
2023/09/25 01:20:51;;;;;;;6.63;3.38;;;;;;;9.49;100.00;101911.28;4978898;28;20442;-81
2023/09/25 01:23:26;;;;;;;7.45;3.40;;;;;;;9.53;100.00;101901.56;4992224;28;20448;-81
2023/09/25 01:25:55;;;;;;;7.40;3.17;;;;;;;9.48;100.00;101914.22;4991684;28;20438;-81
2023/09/25 01:28:28;;;;;;;6.43;3.40;;;;;;;9.45;100.00;101904.66;4976298;28;20797;-80
2023/09/25 01:31:03;;;;;;;7.60;3.10;;;;;;;9.43;100.00;101905.97;4975590;28;20430;-81
2023/09/25 01:33:36;;;;;;;9.45;3.40;;;;;;;9.39;100.00;101905.66;4980059;28;20435;-81
2023/09/25 01:36:06;;;;;;;7.78;3.35;;;;;;;9.36;100.00;101898.81;4992258;28;20770;-81
2023/09/25 01:38:40;;;;;;;6.90;3.20;;;;;;;9.35;100.00;101899.88;4978413;28;20440;-81
2023/09/25 01:41:14;;;;;;;5.63;3.40;;;;;;;9.35;100.00;101909.91;4977078;28;20421;-80
2023/09/25 01:43:47;;;;;;;6.68;3.30;;;;;;;9.33;100.00;101914.75;4989696;28;20438;-80
2023/09/25 01:46:20;;;;;;;6.68;3.30;;;;;;;9.38;100.00;101914.00;4980371;28;20425;-80
2023/09/25 01:48:53;;;;;;;9.10;3.00;;;;;;;9.38;100.00;101914.00;4976167;28;20435;-81
2023/09/25 01:51:26;;;;;;;7.82;3.30;;;;;;;9.34;100.00;101910.97;4975783;28;20430;-80
2023/09/25 01:53:56;;;;;;;7.30;3.13;;;;;;;9.19;100.00;101915.00;4976268;28;20883;-80
2023/09/25 01:56:30;;;;;;;7.65;3.22;;;;;;;9.21;100.00;101917.50;4976082;28;20424;-80
2023/09/25 01:59:03;;;;;;;8.20;3.07;;;;;;;9.23;100.00;101915.38;4973896;28;20442;-80
2023/09/25 02:01:36;;;;;;;9.10;3.30;;;;;;;9.19;100.00;101911.47;4981104;28;20439;-80
2023/09/25 02:04:05;;;;;;;7.03;3.70;;;;;;;9.23;100.00;101909.13;4977141;28;20930;-80
2023/09/25 02:06:38;;;;;;;6.95;3.30;;;;;;;9.22;100.00;101896.59;4988429;28;20458;-80
2023/09/25 02:09:10;;;;;;;7.13;3.50;;;;;;;9.21;100.00;101893.06;4981126;28;20431;-80
2023/09/25 02:11:43;;;;;;;6.22;3.13;;;;;;;9.16;100.00;101896.50;4974819;28;20430;-80
2023/09/25 02:14:16;;;;;;;5.90;3.40;;;;;;;9.22;100.00;101900.13;4963939;28;20439;-80
2023/09/25 02:16:51;;;;;;;5.70;3.20;;;;;;;9.17;100.00;101897.34;4975875;28;20424;-80
2023/09/25 02:19:25;;;;;;;7.40;3.33;;;;;;;9.10;100.00;101902.91;4981521;28;20766;-81
2023/09/25 02:21:54;;;;;;;6.30;3.33;;;;;;;9.11;100.00;101903.72;4973053;28;20430;-80
2023/09/25 02:24:28;;;;;;;9.60;3.70;;;;;;;9.11;100.00;101895.56;4974077;28;20429;-80
2023/09/25 02:27:02;;;;;;;8.10;3.70;;;;;;;9.16;100.00;101901.09;4971752;28;20446;-80
2023/09/25 02:29:30;;;;;;;9.33;3.67;;;;;;;9.12;100.00;101894.50;4990876;28;21012;-81
2023/09/25 02:31:58;;;;;;;6.50;3.45;;;;;;;9.09;100.00;101898.53;4982710;28;20424;-80
2023/09/25 02:34:32;;;;;;;7.55;3.60;;;;;;;9.04;100.00;101895.69;4981615;28;20424;-81
2023/09/25 02:37:00;;;;;;;6.97;3.60;;;;;;;9.04;100.00;101890.25;4981034;28;20420;-80
2023/09/25 02:39:34;;;;;;;8.45;3.65;;;;;;;9.04;100.00;101894.88;4978681;28;20463;-80
2023/09/25 02:42:08;;;;;;;6.28;3.50;;;;;;;8.97;100.00;101895.81;4978263;28;20457;-80
2023/09/25 02:44:41;;;;;;;6.30;3.50;;;;;;;8.91;100.00;101895.94;4977517;28;20431;-81
2023/09/25 02:47:15;;;;;;;6.32;3.70;;;;;;;8.94;100.00;101890.88;4982779;28;20420;-81
2023/09/25 02:49:43;;;;;;;6.60;3.90;;;;;;;8.97;100.00;101903.97;4980968;28;20415;-80
2023/09/25 02:52:16;;;;;;;7.40;3.80;;;;;;;8.97;100.00;101897.72;4963231;28;20435;-81
2023/09/25 02:54:51;;;;;;;7.60;3.50;;;;;;;8.88;100.00;101894.56;4970569;28;20445;-80
2023/09/25 02:57:19;;;;;;;10.27;3.83;;;;;;;8.89;100.00;101895.38;4976731;28;20440;-80
2023/09/25 02:59:52;;;;;;;7.82;3.78;;;;;;;8.89;100.00;101895.38;4963571;28;20439;-80
2023/09/25 03:02:20;;;;;;;6.93;3.53;;;;;;;8.87;100.00;101905.66;4978811;28;20426;-80
2023/09/25 03:04:54;;;;;;;7.43;3.97;;;;;;;8.81;100.00;101894.69;4980617;28;20424;-80
2023/09/25 03:07:29;;;;;;;8.85;4.10;;;;;;;8.90;100.00;101895.13;4974530;28;20438;-80
2023/09/25 03:09:59;;;;;;;8.57;4.00;;;;;;;8.92;100.00;101897.59;4978616;28;20433;-81
2023/09/25 03:12:33;;;;;;;7.10;3.70;;;;;;;8.83;100.00;101899.88;4980968;28;20791;-81
2023/09/25 03:15:07;;;;;;;8.70;4.18;;;;;;;8.83;100.00;101906.13;4979808;28;20422;-80
2023/09/25 03:17:40;;;;;;;7.40;3.92;;;;;;;8.79;100.00;101899.50;4980043;28;20414;-80
2023/09/25 03:20:15;;;;;;;8.55;4.28;;;;;;;8.75;100.00;101889.38;4976238;28;20459;-80
2023/09/25 03:22:48;;;;;;;7.63;4.18;;;;;;;8.74;100.00;101895.84;4996470;28;20434;-80
2023/09/25 03:25:23;;;;;;;8.75;4.28;;;;;;;8.79;100.00;101893.25;4966031;28;20444;-80
2023/09/25 03:27:56;;;;;;;7.10;4.40;;;;;;;8.74;100.00;101893.13;4981510;28;20428;-80
2023/09/25 03:30:30;;;;;;;9.48;4.40;;;;;;;8.76;100.00;101899.16;4973930;28;20428;-80
2023/09/25 03:32:58;;;;;;;9.75;5.10;;;;;;;8.71;100.00;101904.47;4977008;28;20435;-80
2023/09/25 03:35:26;;;;;;;9.23;4.90;;;;;;;8.66;100.00;101914.16;4980333;28;21203;-80
2023/09/25 03:38:00;;;;;;;10.85;5.22;;;;;;;8.71;100.00;101904.47;4996409;28;20418;-80
2023/09/25 03:40:29;;;;;;;10.02;4.70;;;;;;;8.68;100.00;101900.34;4995650;28;20422;-80
2023/09/25 03:43:03;;;;;;;9.13;4.93;;;;;;;8.66;100.00;101908.72;4988727;28;20911;-80
2023/09/25 03:45:36;;;;;;;8.80;4.68;;;;;;;8.62;100.00;101904.03;4965754;28;20430;-80
2023/09/25 03:48:05;;;;;;;8.93;4.50;;;;;;;8.61;100.00;101905.06;4974050;28;20436;-81
2023/09/25 03:50:38;;;;;;;8.27;4.70;;;;;;;8.56;100.00;101904.94;4981420;28;20420;-80
2023/09/25 03:53:07;;;;;;;7.57;4.75;;;;;;;8.51;100.00;101902.97;4975175;28;20431;-80
2023/09/25 03:55:43;;;;;;;10.35;4.90;;;;;;;8.60;100.00;101895.28;4991511;28;20434;-80
2023/09/25 03:58:11;;;;;;;8.57;4.80;;;;;;;8.58;100.00;101892.81;4961520;28;20452;-80
2023/09/25 04:00:44;;;;;;;11.63;4.85;;;;;;;8.53;100.00;101897.28;4979169;28;20947;-80
2023/09/25 04:03:12;;;;;;;8.45;5.28;;;;;;;8.58;100.00;101902.84;4977793;28;20432;-80
2023/09/25 04:05:41;;;;;;;8.20;5.03;;;;;;;8.56;100.00;101900.38;4978248;28;20416;-80
2023/09/25 04:08:09;;;;;;;10.05;5.50;;;;;;;8.49;100.00;101907.78;4975462;28;20429;-80
2023/09/25 04:10:43;;;;;;;9.98;5.57;;;;;;;8.58;100.00;101898.22;4977348;28;20442;-80
2023/09/25 04:13:18;;;;;;;9.85;5.50;;;;;;;8.58;100.00;101900.13;4979630;28;21088;-80
2023/09/25 04:15:51;;;;;;;11.35;5.53;;;;;;;8.53;100.00;101897.28;4977032;28;20436;-80
2023/09/25 04:18:24;;;;;;;9.75;5.70;;;;;;;8.55;100.00;101889.72;4993267;28;20439;-80
2023/09/25 04:20:52;;;;;;;8.70;5.40;;;;;;;8.48;100.00;101898.81;4972793;28;20438;-80
2023/09/25 04:23:21;;;;;;;9.88;5.40;;;;;;;8.46;100.00;101903.66;4976568;28;20889;-80
2023/09/25 04:26:00;;;;;;;10.82;5.53;;;;;;;8.45;100.00;101903.88;4977940;28;20461;-81
2023/09/25 04:28:29;;;;;;;10.02;5.82;;;;;;;8.50;100.00;101901.28;4981874;28;20863;-80
2023/09/25 04:31:05;;;;;;;8.93;5.40;;;;;;;8.44;100.00;101904.94;4981041;28;20427;-80
2023/09/25 04:33:33;;;;;;;10.25;5.80;;;;;;;8.42;100.00;101896.19;4993408;28;20436;-80
2023/09/25 04:36:10;;;;;;;10.25;5.65;;;;;;;8.50;100.00;101893.97;4975942;28;20412;-80
2023/09/25 04:38:44;;;;;;;9.80;5.80;;;;;;;8.47;100.00;101897.16;4977037;28;20791;-80
2023/09/25 04:41:19;;;;;;;9.50;5.97;;;;;;;8.45;100.00;101903.88;4961770;28;20441;-80
2023/09/25 04:43:52;;;;;;;10.00;5.80;;;;;;;8.56;100.00;101888.66;4982553;28;20440;-80
2023/09/25 04:46:26;;;;;;;10.18;6.13;;;;;;;8.49;100.00;101897.78;4980714;28;20434;-80
2023/09/25 04:49:00;;;;;;;12.00;6.15;;;;;;;8.51;100.00;101900.25;4974452;28;20435;-80
2023/09/25 04:51:33;;;;;;;9.77;5.93;;;;;;;8.51;100.00;101914.63;4974933;28;20430;-79
2023/09/25 04:54:03;;;;;;;9.55;6.22;;;;;;;8.50;100.00;101902.13;4974434;28;20766;-80
2023/09/25 04:56:37;;;;;;;10.47;5.80;;;;;;;8.47;100.00;101899.06;4972695;28;20418;-81
2023/09/25 04:59:06;;;;;;;12.73;5.88;;;;;;;8.40;100.00;101903.75;4980256;28;20752;-80
2023/09/25 05:01:39;;;;;;;10.05;5.78;;;;;;;8.45;100.00;101910.16;4974372;28;20443;-80
2023/09/25 05:04:12;;;;;;;9.27;5.85;;;;;;;8.50;100.00;101909.44;4970348;28;20446;-80
2023/09/25 05:06:40;;;;;;;10.65;6.10;;;;;;;8.48;100.00;101917.00;4973064;28;20435;-80
2023/09/25 05:09:15;;;;;;;11.10;5.90;;;;;;;8.46;100.00;101913.69;4978982;28;20431;-80
2023/09/25 05:11:49;;;;;;;9.90;5.50;;;;;;;8.50;100.00;101918.38;4975344;28;20430;-80
2023/09/25 05:14:17;;;;;;;11.18;5.85;;;;;;;8.48;100.00;101915.09;4976450;28;20426;-80
2023/09/25 05:16:51;;;;;;;10.73;5.70;;;;;;;8.47;100.00;101908.00;4978013;28;20430;-80
2023/09/25 05:19:19;;;;;;;9.50;5.60;;;;;;;8.45;100.00;101904.72;4979219;28;20414;-80
2023/09/25 05:21:52;;;;;;;9.32;5.35;;;;;;;8.47;100.00;101908.00;4977173;28;20420;-80
2023/09/25 05:24:25;;;;;;;10.65;5.88;;;;;;;8.51;100.00;101902.97;4990894;28;20823;-80
2023/09/25 05:26:54;;;;;;;10.48;5.55;;;;;;;8.54;100.00;101904.38;4971857;28;20448;-80
2023/09/25 05:29:28;;;;;;;10.85;5.63;;;;;;;8.55;100.00;101901.41;4975361;28;20439;-80
2023/09/25 05:32:01;;;;;;;10.95;5.43;;;;;;;8.62;100.00;101909.44;4974781;28;20768;-80
2023/09/25 05:34:30;;;;;;;9.10;5.80;;;;;;;8.67;100.00;101907.69;4976552;28;20931;-81
2023/09/25 05:37:04;;;;;;;10.30;5.68;;;;;;;8.72;100.00;101906.13;4972702;28;20902;-80
2023/09/25 05:39:32;;;;;;;9.77;5.70;;;;;;;8.81;100.00;101905.53;4970080;28;20424;-80
2023/09/25 05:42:06;;;;;;;10.20;5.20;;;;;;;8.83;100.00;101908.00;4983120;28;20436;-80
2023/09/25 05:44:40;;;;;;;9.68;5.70;;;;;;;8.87;100.00;101902.94;4976991;28;20422;-80
2023/09/25 05:47:13;;;;;;;10.93;5.88;;;;;;;8.85;100.00;101906.72;4974900;28;20437;-80
2023/09/25 05:49:46;;;;;;;9.18;5.50;;;;;;;8.89;100.00;101909.75;4970895;28;20443;-79
2023/09/25 05:52:15;;;;;;;11.00;5.38;;;;;;;8.93;100.00;101907.41;4973664;28;20428;-80
2023/09/25 05:54:49;;;;;;;9.23;5.70;;;;;;;8.97;100.00;101903.16;4972853;28;20435;-81
2023/09/25 05:57:23;;;;;;;9.80;5.13;;;;;;;8.99;100.00;101915.44;4972858;28;20436;-80
2023/09/25 05:59:56;;;;;;;10.73;5.40;;;;;;;8.99;100.00;101909.16;4972721;28;20436;-81
2023/09/25 06:02:33;;;;;;;13.50;5.95;;;;;;;8.96;100.00;101910.47;4976904;28;20900;-81
2023/09/25 06:05:07;;;;;;;10.65;5.55;;;;;;;9.04;100.00;101914.69;4993618;28;20440;-82
2023/09/25 06:07:36;;;;;;;10.82;5.80;;;;;;;9.14;100.00;101909.50;4965121;28;20779;-82
2023/09/25 06:10:10;;;;;;;10.20;5.70;;;;;;;9.28;100.00;101914.63;4981508;28;20433;-82
2023/09/25 06:12:47;;;;;;;9.48;5.47;;;;;;;9.32;100.00;101904.94;4981817;28;20434;-80
2023/09/25 06:15:23;;;;;;;10.73;5.45;;;;;;;9.39;100.00;101904.81;4975866;28;21054;-81
2023/09/25 06:17:58;;;;;;;9.70;5.60;;;;;;;9.47;100.00;101901.69;4974872;28;20440;-84
2023/09/25 06:20:32;;;;;;;8.65;5.55;;;;;;;9.55;100.00;101904.03;4979894;28;20479;-83
2023/09/25 06:23:05;;;;;;;9.50;5.57;;;;;;;9.70;100.00;101906.22;4978844;28;20424;-81
2023/09/25 06:25:38;;;;;;;8.77;5.32;;;;;;;9.75;100.00;101905.47;4976905;28;20449;-83
2023/09/25 06:28:08;;;;;;;9.50;5.47;;;;;;;9.75;100.00;101908.19;4977852;28;20423;-82
2023/09/25 06:30:36;;;;;;;9.60;5.50;;;;;;;9.88;100.00;101908.72;4971443;28;20453;-82
2023/09/25 06:33:10;;;;;;;8.93;5.15;;;;;;;9.92;100.00;101916.41;4974088;28;20430;-82
2023/09/25 06:35:43;;;;;;;8.85;5.40;;;;;;;9.95;100.00;101907.75;4979564;28;21812;-83
2023/09/25 06:38:11;;;;;;;8.73;5.10;;;;;;;10.04;100.00;101914.44;4985895;28;20433;-84
2023/09/25 06:40:45;;;;;;;9.68;5.43;;;;;;;10.11;100.00;101912.38;4980533;28;20439;-84
2023/09/25 06:43:15;;;;;;;11.32;5.07;;;;;;;10.27;100.00;101918.06;4972990;28;21056;-82
2023/09/25 06:45:48;;;;;;;8.57;5.35;;;;;;;10.22;100.00;101918.81;4974036;28;20439;-82
2023/09/25 06:48:21;;;;;;;9.20;5.20;;;;;;;10.34;100.00;101918.72;4975999;28;20438;-82
2023/09/25 06:50:55;;;;;;;8.57;5.53;;;;;;;10.37;100.00;101919.09;4980317;28;20430;-83
2023/09/25 06:53:23;;;;;;;11.02;5.65;;;;;;;10.42;100.00;101917.53;4973574;28;20444;-87
2023/09/25 06:55:56;;;;;;;9.63;5.30;;;;;;;10.44;100.00;101916.22;4982708;28;20420;-84
2023/09/25 06:58:26;;;;;;;10.82;5.18;;;;;;;10.59;100.00;101921.03;4931337;28;20436;-84
2023/09/25 07:00:59;;;;;;;9.57;5.07;;;;;;;10.59;100.00;101917.50;4963215;28;20436;-87
2023/09/25 07:03:27;;;;;;;10.68;5.10;;;;;;;10.64;100.00;101910.22;4960234;28;20444;-85
2023/09/25 07:05:58;;;;;;;9.20;5.32;;;;;;;10.75;100.00;101911.22;4959436;28;21071;-84
2023/09/25 07:08:32;;;;;;;10.48;5.00;;;;;;;10.87;100.00;101909.19;4958487;28;20444;-85
2023/09/25 07:11:05;;;;;;;8.57;4.97;;;;;;;10.77;100.00;101909.06;4956011;28;20951;-85
2023/09/25 07:13:40;;;;;;;8.82;5.05;;;;;;;10.90;100.00;101907.88;4954875;28;20451;-84
2023/09/25 07:16:13;;;;;;;8.25;5.00;;;;;;;10.87;100.00;101911.94;4956001;28;20450;-85
2023/09/25 07:18:47;;;;;;;10.35;5.03;;;;;;;10.94;100.00;101910.91;4968854;28;20444;-85
2023/09/25 07:21:20;;;;;;;7.70;4.82;;;;;;;10.96;100.00;101904.13;4957250;28;20451;-84
2023/09/25 07:23:54;;;;;;;9.17;5.13;;;;;;;11.02;100.00;101911.31;4954616;28;21143;-85
2023/09/25 07:26:28;;;;;;;10.30;5.15;;;;;;;11.07;100.00;101907.81;4951856;28;20438;-84
2023/09/25 07:28:58;;;;;;;8.63;4.97;;;;;;;11.12;100.00;101907.06;4948776;28;20442;-85
2023/09/25 07:31:31;;;;;;;9.68;5.18;;;;;;;11.19;100.00;101907.69;4953999;28;20440;-85
2023/09/25 07:34:05;;;;;;;8.65;4.97;;;;;;;11.29;100.00;101909.72;4955041;28;20428;-85
2023/09/25 07:36:38;;;;;;;8.63;4.90;;;;;;;11.33;100.00;101910.88;4951624;28;20443;-85
2023/09/25 07:39:15;;;;;;;8.55;5.00;;;;;;;11.47;100.00;101903.94;4953407;28;21769;-85
2023/09/25 07:41:49;;;;;;;8.73;5.70;;;;;;;11.54;100.00;101910.00;4954319;28;20436;-85
2023/09/25 07:44:19;;;;;;;11.68;5.30;;;;;;;11.70;100.00;101915.63;4953431;28;20447;-85
2023/09/25 07:46:53;;;;;;;8.93;4.70;;;;;;;11.79;100.00;101905.06;4956550;28;20436;-85
2023/09/25 07:49:27;;;;;;;10.00;4.53;;;;;;;11.81;100.00;101905.66;4953336;28;20451;-85
2023/09/25 07:52:00;;;;;;;8.67;4.57;;;;;;;11.93;100.00;101906.28;4953673;28;20424;-85
2023/09/25 07:54:29;;;;;;;8.45;4.32;;;;;;;12.08;100.00;101909.22;4952786;28;20428;-82
2023/09/25 07:57:02;;;;;;;7.60;4.38;;;;;;;12.19;100.00;101909.28;4958502;28;20455;-86
2023/09/25 07:59:32;;;;;;;7.93;4.50;;;;;;;12.31;100.00;101906.38;4929260;28;20868;-85
2023/09/25 08:02:01;;;;;;;7.57;4.22;;;;;;;12.34;100.00;101919.50;4951443;28;21266;-84
2023/09/25 08:04:35;;;;;;;8.23;4.47;;;;;;;12.47;100.00;101919.06;4960718;28;20951;-84
2023/09/25 08:07:08;;;;;;;6.82;4.03;;;;;;;12.55;100.00;101915.84;4954462;28;20436;-85
2023/09/25 08:09:36;;;;;;;7.55;4.10;;;;;;;12.68;100.00;101921.94;4956298;28;20431;-84
2023/09/25 08:12:05;;;;;;;7.65;4.10;;;;;;;12.78;100.00;101919.25;4957194;28;20432;-85
2023/09/25 08:14:40;;;;;;;10.02;5.72;;;;;;;12.86;100.00;101924.22;4957029;28;20459;-85
2023/09/25 08:17:08;;;;;;;9.40;4.40;;;;;;;12.96;100.00;101928.91;4953403;28;21818;-85
2023/09/25 08:19:41;;;;;;;7.63;4.17;;;;;;;13.07;100.00;101922.41;4950574;28;20536;-86
2023/09/25 08:22:10;;;;;;;7.25;3.90;;;;;;;13.12;100.00;101918.03;4953177;28;20436;-87
2023/09/25 08:24:43;;;;;;;11.00;4.00;;;;;;;13.23;100.00;101920.56;4956192;28;20428;-85
2023/09/25 08:27:17;;;;;;;6.55;3.70;;;;;;;13.24;100.00;101913.19;4950831;28;20441;-88
2023/09/25 08:29:47;;;;;;;7.80;4.03;;;;;;;13.24;100.00;101915.91;4949058;28;20434;-85
2023/09/25 08:32:20;;;;;;;6.93;3.35;;;;;;;13.35;100.00;101911.31;4954745;28;20435;-85
2023/09/25 08:34:53;;;;;;;6.90;3.45;;;;;;;13.39;100.00;101918.72;4948037;28;20440;-85
2023/09/25 08:37:22;;;;;;;9.98;5.35;;;;;;;13.49;100.00;101912.50;4948264;28;20440;-86
2023/09/25 08:39:56;;;;;;;6.93;3.90;;;;;;;13.47;100.00;101913.84;4952306;28;20440;-84
2023/09/25 08:42:29;;;;;;;6.57;3.53;;;;;;;13.53;100.00;101920.97;4954001;28;20463;-85
2023/09/25 08:45:05;;;;;;;6.68;3.50;;;;;;;13.60;100.00;101919.63;4954489;28;20440;-84
2023/09/25 08:47:34;;;;;;;6.30;3.20;;;;;;;13.74;100.00;101916.34;4955158;28;20444;-85
2023/09/25 08:50:03;;;;;;;7.22;3.47;;;;;;;13.82;100.00;101923.22;4951990;28;20754;-85
2023/09/25 08:52:37;;;;;;;5.22;3.10;;;;;;;13.88;100.00;101922.13;4952733;28;20448;-85
2023/09/25 08:55:10;;;;;;;5.50;3.50;;;;;;;13.92;100.00;101917.75;4954198;28;20424;-85
2023/09/25 08:57:39;;;;;;;6.30;3.40;;;;;;;14.07;100.00;101917.78;4950848;28;20443;-85
2023/09/25 09:00:16;;;;;;;6.47;3.00;;;;;;;14.20;100.00;101919.13;4927454;28;20963;-87
2023/09/25 09:02:44;;;;;;;6.50;3.30;;;;;;;14.26;100.00;101911.75;4953709;28;20436;-85
2023/09/25 09:05:13;;;;;;;5.50;3.00;;;;;;;14.30;100.00;101915.56;4952491;28;20447;-85
2023/09/25 09:07:56;;;;;;;5.00;2.97;;;;;;;14.23;100.00;101904.91;4960248;28;20823;-84
2023/09/25 09:10:24;;;;;;;6.88;3.13;;;;;;;14.24;100.00;101900.25;4952089;28;20444;-83
2023/09/25 09:12:53;;;;;;;6.90;3.30;;;;;;;14.38;100.00;101897.78;4955760;28;20432;-85
2023/09/25 09:15:29;;;;;;;5.40;3.10;;;;;;;14.42;100.00;101890.66;4949785;28;20928;-86
2023/09/25 09:18:19;;;;;;;4.50;2.80;;;;;;;14.52;100.00;101892.56;4949057;28;20432;-87
2023/09/25 09:20:47;;;;;;;6.65;3.22;;;;;;;14.63;100.00;101891.47;4951537;28;20432;-85
2023/09/25 09:23:15;;;;;;;5.35;2.90;;;;;;;14.59;100.00;101898.56;4953345;28;20901;-86
2023/09/25 09:25:46;;;;;;;6.70;2.75;;;;;;;14.55;100.00;101892.81;4952732;28;20455;-87
2023/09/25 09:28:15;;;;;;;5.47;2.88;;;;;;;14.60;100.00;101897.47;4955593;28;20428;-87
2023/09/25 09:30:50;;;;;;;5.40;3.05;;;;;;;14.75;100.00;101893.91;4954438;28;20436;-88
2023/09/25 09:33:29;;;;;;;6.65;2.90;;;;;;;14.87;100.00;101902.63;4952775;28;20447;-84
2023/09/25 09:36:02;;;;;;;6.47;3.15;;;;;;;14.89;100.00;101902.38;4953986;28;20433;-84
2023/09/25 09:38:39;;;;;;;5.53;2.85;;;;;;;15.03;100.00;101895.16;4963112;28;21492;-85
2023/09/25 09:41:13;;;;;;;4.88;2.92;;;;;;;15.07;100.00;101890.75;4951359;28;20440;-85
2023/09/25 09:43:42;;;;;;;6.10;2.90;;;;;;;15.27;100.00;101883.53;4953471;28;20433;-82
2023/09/25 09:46:14;;;;;;;4.57;2.60;;;;;;;15.39;100.00;101878.53;4957783;28;20442;-84
2023/09/25 09:48:48;;;;;;;5.45;2.63;;;;;;;15.41;100.00;101876.34;4951145;28;20418;-84
2023/09/25 09:51:18;;;;;;;6.03;2.80;;;;;;;15.56;100.00;101883.63;4952784;28;20424;-84
2023/09/25 09:53:46;;;;;;;4.80;2.40;;;;;;;15.66;100.00;101871.81;4949703;28;21272;-85
2023/09/25 09:56:20;;;;;;;4.25;2.60;;;;;;;15.73;100.00;101874.19;4955148;28;20439;-85
2023/09/25 09:58:55;;;;;;;3.63;2.28;;;;;;;15.88;100.00;101876.03;4926081;28;20432;-84
2023/09/25 10:01:33;;;;;;;4.87;2.47;;;;;;;15.90;100.00;101874.66;4952450;28;20455;-84
2023/09/25 10:04:03;;;;;;;5.07;2.58;;;;;;;15.87;100.00;101863.41;4949060;28;20450;-85
2023/09/25 10:06:43;;;;;;;5.67;2.40;;;;;;;15.96;100.00;101873.53;4951869;28;20525;-84
2023/09/25 10:09:18;;;;;;;4.72;2.53;;;;;;;16.04;100.00;101872.06;4954208;28;20430;-86
2023/09/25 10:11:48;;;;;;;4.93;2.55;;;;;;;16.09;100.00;101872.03;4951887;28;20470;-85
2023/09/25 10:14:22;;;;;;;5.65;2.40;;;;;;;16.13;100.00;101870.34;4951611;28;20864;-88
2023/09/25 10:17:00;;;;;;;4.78;2.67;;;;;;;16.26;100.00;101860.63;4951218;28;20448;-85
2023/09/25 10:19:52;;;;;;;4.82;2.50;;;;;;;16.18;100.00;101863.97;4948301;28;20444;-89
2023/09/25 10:22:23;;;;;;;5.50;2.40;;;;;;;16.25;100.00;101858.97;4958933;28;21848;-87
2023/09/25 10:25:05;;;;;;;4.68;2.47;;;;;;;16.30;100.00;101858.91;4954304;28;21177;-88
2023/09/25 10:27:40;;;;;;;3.22;2.30;;;;;;;16.35;100.00;101854.50;4952502;28;20443;-89
2023/09/25 10:30:13;;;;;;;3.97;2.25;;;;;;;16.31;100.00;101848.78;4957036;28;20437;-88
2023/09/25 10:32:51;;;;;;;5.55;2.45;;;;;;;16.22;100.00;101848.56;4953690;28;20685;-90
2023/09/25 10:35:42;;;;;;;4.30;2.25;;;;;;;16.42;100.00;101850.31;4949372;28;21199;-88
2023/09/25 10:38:22;;;;;;;5.00;2.30;;;;;;;16.48;100.00;101848.31;4949673;28;20459;-88
2023/09/25 10:40:51;;;;;;;4.70;2.20;;;;;;;16.53;100.00;101856.50;4949030;28;21084;-88
2023/09/25 10:43:25;;;;;;;5.38;2.33;;;;;;;16.63;100.00;101858.31;4950420;28;21204;-88
2023/09/25 10:45:55;;;;;;;38.13;7.53;;;;;;;16.67;100.00;101848.38;4954988;28;20451;-90
2023/09/25 10:48:31;;;;;;;8.52;3.50;;;;;;;16.62;100.00;101848.44;4950018;28;20491;-89
2023/09/25 10:50:59;;;;;;;9.73;4.28;;;;;;;16.55;100.00;101845.22;4950023;28;20447;-86
2023/09/25 10:53:33;;;;;;;13.73;5.10;;;;;;;16.75;100.00;101842.25;4953887;28;20439;-87
2023/09/25 10:56:01;;;;;;;9.48;3.33;;;;;;;16.82;100.00;101844.59;4957566;28;20436;-89
2023/09/25 10:58:30;;;;;;;6.35;2.85;;;;;;;16.97;100.00;101847.22;4940899;28;20428;-89
2023/09/25 11:01:04;;;;;;;4.57;2.30;;;;;;;16.96;100.00;101851.06;4957587;28;20440;-90
2023/09/25 11:03:36;;;;;;;6.40;2.75;;;;;;;17.04;100.00;101846.88;4966205;28;20789;-85
2023/09/25 11:06:09;;;;;;;5.07;2.30;;;;;;;17.05;100.00;101836.66;4955862;28;20443;-88
2023/09/25 11:08:38;;;;;;;4.07;2.25;;;;;;;17.11;100.00;101835.47;4953270;28;20436;-85
2023/09/25 11:11:06;;;;;;;5.25;2.30;;;;;;;17.21;100.00;101826.25;4954637;28;20463;-84
2023/09/25 11:13:35;;;;;;;4.85;2.50;;;;;;;17.25;100.00;101825.38;4960548;28;20424;-84
2023/09/25 11:16:03;;;;;;;6.55;2.55;;;;;;;17.31;100.00;101821.44;4955963;28;20432;-83
2023/09/25 11:18:37;;;;;;;5.20;2.20;;;;;;;17.27;100.00;101817.63;4956603;28;20440;-87
2023/09/25 11:21:11;;;;;;;4.15;2.20;;;;;;;17.31;100.00;101810.44;4953556;28;20447;-85
2023/09/25 11:23:44;;;;;;;4.72;2.35;;;;;;;17.39;100.00;101802.63;4962034;28;20821;-85
2023/09/25 11:26:12;;;;;;;3.90;1.98;;;;;;;17.45;100.00;101802.22;4952303;28;20439;-83
2023/09/25 11:28:46;;;;;;;4.70;2.22;;;;;;;17.36;100.00;101792.22;4954566;28;20440;-86
2023/09/25 11:31:19;;;;;;;5.22;2.05;;;;;;;17.42;100.00;101800.09;4955862;28;20432;-85
2023/09/25 11:33:49;;;;;;;3.58;1.92;;;;;;;17.50;100.00;101809.63;4952914;28;20432;-85
2023/09/25 11:36:17;;;;;;;4.03;2.00;;;;;;;17.47;100.00;101800.00;4953662;28;20450;-86
2023/09/25 11:38:49;;;;;;;3.35;1.70;;;;;;;17.51;100.00;101795.53;4952139;28;20456;-84
2023/09/25 11:41:22;;;;;;;6.75;2.17;;;;;;;17.40;100.00;101799.59;4955222;28;20420;-84
2023/09/25 11:43:56;;;;;;;4.93;2.00;;;;;;;17.59;100.00;101793.22;4953836;28;20439;-86